Moran, Minnesota
Current Conditions -  °F | °C
As of 10:34 AM on Thursday 18 Dec 2014 (Local Time) from KSAZ Reporting Station
Light Snow Light Snow  
Wind Chill: 12°   Ceiling: 1600
Heat Index: 12°   Visibility: 7mi
Dew Point: 10°   Wind: 3mph
Humidity: 92%   Direction: 120°ESE
Pressure: 30.27"   Gusts: NA
Location:  46.4416°N, 94.6389°W
Report Text: KSAZ 181634Z AUTO 12003KT 7SM -SN OVC016 M11/M12 A3027 RMK AO2
Loading
Personal Weather Stations






























Interactive Weather Map New forecast layout! Learn more

10-Day Weather Forecast

Advertisements
Track Severe Weather on mobile